Winter Springs, Florida
Current Conditions -  °F | °C
As of 3:53 PM on Tuesday 25 Nov 2014 (Local Time) from KSFB Reporting Station
Thunderstorm Thunderstorm  
Wind Chill: 73°   Ceiling: 1100
Heat Index: 73°   Visibility: 0.75mi
Dew Point: 71°   Wind: 6mph
Humidity: 93%   Direction: 50°NE
Pressure: 29.88"   Gusts: NA
Location:  28.7°N, 81.26°W
Report Text: KSFB 252053Z 05005KT 3/4SM +TSRA BR SCT004 OVC011 23/22 A2988 RMK AO2 LTG DSNT ALQDS RAB22 TSB45 SLP117 TS SW MOV NE P0031 60056 T02280217 58014
Loading
Personal Weather Stations






























Interactive Weather Map New forecast layout! Learn more

10-Day Weather Forecast

Advertisements
Track Severe Weather on mobile